createdAt,value
2022-09-11T00:03:24.574Z,16.10
2022-09-11T00:08:27.373Z,16.14
2022-09-11T00:13:29.055Z,16.05
2022-09-11T00:18:31.123Z,16.03
2022-09-11T00:23:33.323Z,16.06
2022-09-11T00:28:36.992Z,16.04
2022-09-11T00:33:39.709Z,16.04
2022-09-11T00:38:42.847Z,16.02
2022-09-11T00:43:52.249Z,16.03
2022-09-11T00:48:55.855Z,16.01
2022-09-11T00:53:58.697Z,15.99
2022-09-11T00:59:01.191Z,15.92
2022-09-11T01:04:05.639Z,15.94
2022-09-11T01:09:07.380Z,15.91
2022-09-11T01:14:37.894Z,15.81
2022-09-11T01:20:09.142Z,15.79
2022-09-11T01:25:29.090Z,15.82
2022-09-11T01:30:41.021Z,15.82
2022-09-11T01:35:49.295Z,15.73
2022-09-11T01:41:02.557Z,15.72
2022-09-11T01:46:07.942Z,15.69
2022-09-11T01:51:18.790Z,15.72
2022-09-11T01:56:26.107Z,15.72
2022-09-11T02:01:32.941Z,15.74
2022-09-11T02:06:42.321Z,15.75
2022-09-11T02:11:48.528Z,15.74
2022-09-11T02:17:31.615Z,15.68
2022-09-11T02:22:33.637Z,15.64
2022-09-11T02:27:36.965Z,15.58
2022-09-11T02:32:40.832Z,15.56
2022-09-11T02:38:06.357Z,15.57
2022-09-11T02:43:20.094Z,15.59
2022-09-11T02:48:36.453Z,15.59
2022-09-11T02:54:27.890Z,15.54
2022-09-11T02:59:39.905Z,15.54
2022-09-11T03:04:45.525Z,15.57
2022-09-11T03:09:47.274Z,15.62
2022-09-11T03:14:54.881Z,15.60
2022-09-11T03:19:56.895Z,15.59
2022-09-11T03:24:59.199Z,15.55
2022-09-11T03:30:03.574Z,15.52
2022-09-11T03:35:06.198Z,15.49
2022-09-11T03:40:08.480Z,15.52
2022-09-11T03:45:11.980Z,15.44
2022-09-11T03:50:14.135Z,15.36
2022-09-11T03:55:16.611Z,15.32
2022-09-11T04:00:18.483Z,15.31
2022-09-11T04:05:26.157Z,15.22
2022-09-11T04:10:29.005Z,15.24
2022-09-11T04:15:33.354Z,15.28
2022-09-11T04:20:39.537Z,15.27
2022-09-11T04:25:41.366Z,15.28
2022-09-11T04:30:43.114Z,15.34
2022-09-11T04:35:45.256Z,15.30
2022-09-11T04:40:47.759Z,15.33
2022-09-11T04:45:49.651Z,15.30
2022-09-11T04:51:04.814Z,15.32
2022-09-11T04:56:10.447Z,15.31
2022-09-11T05:01:17.534Z,15.33
2022-09-11T05:06:24.858Z,15.30
2022-09-11T05:11:27.871Z,15.25
2022-09-11T05:16:31.539Z,15.26
2022-09-11T05:21:34.126Z,15.22
2022-09-11T05:26:37.931Z,15.25
2022-09-11T05:31:42.282Z,15.25
2022-09-11T05:36:45.879Z,15.18
2022-09-11T05:41:51.456Z,15.18
2022-09-11T05:46:53.293Z,15.10
2022-09-11T05:51:55.097Z,15.06
2022-09-11T05:56:58.782Z,15.03
2022-09-11T06:02:01.772Z,14.98
2022-09-11T06:07:12.982Z,15.02
2022-09-11T06:12:19.074Z,15.02
2022-09-11T06:17:23.182Z,15.04
2022-09-11T06:22:29.280Z,15.10
2022-09-11T06:27:31.314Z,15.15
2022-09-11T06:32:33.294Z,15.15
2022-09-11T06:37:35.767Z,15.18
2022-09-11T06:42:37.609Z,15.22
2022-09-11T06:47:39.338Z,15.25
2022-09-11T06:52:41.524Z,15.23
2022-09-11T06:57:50.015Z,15.23
2022-09-11T07:02:57.250Z,15.28
2022-09-11T07:08:00.049Z,15.33
2022-09-11T07:13:06.105Z,15.33
2022-09-11T07:18:08.523Z,15.32
2022-09-11T07:23:10.798Z,15.33
2022-09-11T07:28:12.516Z,15.37
2022-09-11T07:33:15.871Z,15.37
2022-09-11T07:38:18.531Z,15.42
2022-09-11T07:43:21.330Z,15.52
2022-09-11T07:48:23.096Z,15.55
2022-09-11T07:53:25.843Z,15.59
2022-09-11T07:58:27.657Z,15.62
2022-09-11T08:03:31.110Z,15.64
2022-09-11T08:08:33.025Z,15.66
2022-09-11T08:13:35.810Z,15.67
2022-09-11T08:18:37.901Z,15.75
2022-09-11T08:23:42.567Z,15.84
2022-09-11T08:28:45.760Z,15.89
2022-09-11T08:33:49.237Z,15.95
2022-09-11T08:38:52.666Z,15.96
2022-09-11T08:44:06.545Z,15.95
2022-09-11T08:49:15.804Z,15.94
2022-09-11T08:54:31.920Z,16.03
2022-09-11T08:59:50.360Z,16.16
2022-09-11T09:04:55.330Z,16.33
2022-09-11T09:10:19.753Z,16.55
2022-09-11T09:15:42.342Z,16.77
2022-09-11T09:20:50.079Z,16.86
2022-09-11T09:25:55.918Z,16.85
2022-09-11T09:31:03.910Z,16.90
2022-09-11T09:36:29.075Z,16.93
2022-09-11T09:41:46.219Z,17.08
2022-09-11T09:46:51.946Z,17.03
2022-09-11T09:51:59.818Z,17.13
2022-09-11T09:57:10.492Z,17.21
2022-09-11T10:02:12.387Z,17.34
2022-09-11T10:07:21.719Z,17.24
2022-09-11T10:12:27.249Z,17.28
2022-09-11T10:17:32.314Z,17.54
2022-09-11T10:22:34.072Z,17.65
2022-09-11T10:27:44.381Z,17.74
2022-09-11T10:32:46.175Z,17.88
2022-09-11T10:38:00.475Z,17.77
2022-09-11T10:43:02.992Z,17.79
2022-09-11T10:48:15.158Z,17.86
2022-09-11T10:53:23.186Z,17.92
2022-09-11T10:58:31.087Z,18.12
2022-09-11T11:03:33.066Z,18.19
2022-09-11T11:08:57.924Z,18.30
2022-09-11T11:14:28.726Z,18.48
2022-09-11T11:19:41.057Z,18.62
2022-09-11T11:24:46.558Z,18.66
2022-09-11T11:30:15.670Z,18.52
2022-09-11T11:35:21.487Z,18.52
2022-09-11T11:40:40.478Z,18.51
2022-09-11T11:45:47.046Z,18.55
2022-09-11T11:51:04.662Z,18.62
2022-09-11T11:56:36.035Z,18.81
2022-09-11T12:01:37.839Z,18.79
2022-09-11T12:06:39.635Z,18.69
2022-09-11T12:11:45.803Z,18.67
2022-09-11T12:16:49.275Z,18.67
2022-09-11T12:21:54.017Z,18.83
2022-09-11T12:27:34.377Z,18.86
2022-09-11T12:32:47.900Z,19.09
2022-09-11T12:38:10.210Z,19.61
2022-09-11T12:43:35.412Z,19.52
2022-09-11T12:49:25.801Z,19.67
2022-09-11T12:54:42.442Z,20.00
2022-09-11T12:59:52.457Z,20.12
2022-09-11T13:04:55.227Z,20.23
2022-09-11T13:10:03.138Z,20.36
2022-09-11T13:15:05.274Z,19.85
2022-09-11T13:20:08.261Z,19.66
2022-09-11T13:25:16.200Z,19.69
2022-09-11T13:30:21.624Z,19.63
2022-09-11T13:35:28.651Z,19.58
2022-09-11T13:40:52.348Z,19.75
2022-09-11T13:46:11.027Z,20.34
2022-09-11T13:51:31.763Z,20.79
2022-09-11T13:56:45.173Z,20.94
2022-09-11T14:02:00.804Z,21.21
2022-09-11T14:07:02.840Z,20.79
2022-09-11T14:12:04.766Z,20.72
2022-09-11T14:17:10.702Z,20.42
2022-09-11T14:22:27.044Z,20.28
2022-09-11T14:27:34.881Z,20.13
2022-09-11T14:32:39.055Z,20.15
2022-09-11T14:37:45.746Z,20.05
2022-09-11T14:42:48.231Z,20.13
2022-09-11T14:47:50.999Z,20.28
2022-09-11T14:52:52.751Z,20.35
2022-09-11T14:57:54.435Z,20.31
2022-09-11T15:02:56.214Z,20.56
2022-09-11T15:08:00.435Z,20.78
2022-09-11T15:13:03.002Z,20.94
2022-09-11T15:18:07.370Z,21.14
2022-09-11T15:23:09.262Z,21.11
2022-09-11T15:28:10.971Z,20.90
2022-09-11T15:33:12.622Z,20.66
2022-09-11T15:38:14.467Z,20.68
2022-09-11T15:43:16.379Z,20.90
2022-09-11T15:48:19.409Z,21.16
2022-09-11T15:53:21.570Z,20.93
2022-09-11T15:58:23.315Z,20.85
2022-09-11T16:03:25.370Z,21.01
2022-09-11T16:08:27.820Z,21.00
2022-09-11T16:13:31.606Z,20.69
2022-09-11T16:18:38.424Z,20.70
2022-09-11T16:23:40.999Z,20.77
2022-09-11T16:28:42.908Z,20.75
2022-09-11T16:33:45.064Z,20.73
2022-09-11T16:38:49.914Z,20.76
2022-09-11T16:43:52.679Z,20.59
2022-09-11T16:48:57.765Z,20.25
2022-09-11T16:54:04.101Z,20.07
2022-09-11T16:59:06.410Z,19.86
2022-09-11T17:04:08.126Z,19.67
2022-09-11T17:09:09.836Z,19.52
2022-09-11T17:14:11.874Z,19.34
2022-09-11T17:19:13.502Z,19.24
2022-09-11T17:24:17.923Z,19.18
2022-09-11T17:29:20.106Z,19.10
2022-09-11T17:34:21.758Z,18.84
2022-09-11T17:39:23.462Z,18.73
2022-09-11T17:44:25.188Z,18.63
2022-09-11T17:49:27.171Z,18.50
2022-09-11T17:54:28.899Z,18.11
2022-09-11T17:59:30.548Z,17.72
2022-09-11T18:04:32.185Z,17.51
2022-09-11T18:09:33.867Z,17.37
2022-09-11T18:14:40.349Z,17.38
2022-09-11T18:19:42.344Z,17.36
2022-09-11T18:24:44.354Z,17.23
2022-09-11T18:29:46.082Z,17.24
2022-09-11T18:34:48.453Z,17.22
2022-09-11T18:39:50.202Z,17.22
2022-09-11T18:44:51.856Z,17.20
2022-09-11T18:49:53.475Z,17.01
2022-09-11T18:54:55.286Z,16.93
2022-09-11T18:59:57.057Z,16.77
2022-09-11T19:05:00.207Z,16.62
2022-09-11T19:10:01.900Z,16.32
2022-09-11T19:15:04.022Z,16.13
2022-09-11T19:20:12.125Z,16.01
2022-09-11T19:25:15.213Z,15.96
2022-09-11T19:30:17.356Z,15.87
2022-09-11T19:35:19.356Z,15.70
2022-09-11T19:40:21.105Z,15.63
2022-09-11T19:45:22.902Z,15.51
2022-09-11T19:50:24.670Z,15.35
2022-09-11T19:55:26.510Z,15.43
2022-09-11T20:00:29.430Z,15.45
2022-09-11T20:05:31.581Z,15.25
2022-09-11T20:10:33.845Z,14.97
2022-09-11T20:15:36.139Z,14.99
2022-09-11T20:20:43.390Z,14.91
2022-09-11T20:25:46.936Z,14.75
2022-09-11T20:30:48.717Z,14.76
2022-09-11T20:35:50.352Z,14.73
2022-09-11T20:40:52.001Z,14.53
2022-09-11T20:45:54.386Z,14.68
2022-09-11T20:51:03.841Z,14.83
2022-09-11T20:56:11.057Z,14.80
2022-09-11T21:01:16.358Z,14.55
2022-09-11T21:06:23.433Z,14.56
2022-09-11T21:11:29.616Z,14.45
2022-09-11T21:16:31.656Z,14.34
2022-09-11T21:21:35.240Z,14.26
2022-09-11T21:26:37.318Z,14.17
2022-09-11T21:31:39.308Z,14.03
2022-09-11T21:36:42.404Z,13.96
2022-09-11T21:41:44.119Z,14.13
2022-09-11T21:46:45.820Z,14.26
2022-09-11T21:51:47.541Z,14.33
2022-09-11T21:56:49.214Z,14.29
2022-09-11T22:01:51.046Z,14.31
2022-09-11T22:06:54.585Z,14.27
2022-09-11T22:11:59.795Z,14.09
2022-09-11T22:17:01.802Z,14.07
2022-09-11T22:22:03.839Z,14.06
2022-09-11T22:27:07.202Z,13.99
2022-09-11T22:32:08.858Z,14.02
2022-09-11T22:37:10.470Z,14.11
2022-09-11T22:42:12.088Z,14.18
2022-09-11T22:47:13.734Z,13.96
2022-09-11T22:52:15.585Z,13.75
2022-09-11T22:57:17.345Z,13.80
2022-09-11T23:02:19.106Z,13.86
2022-09-11T23:07:20.871Z,13.86
2022-09-11T23:12:22.688Z,13.86
2022-09-11T23:17:24.345Z,13.90
2022-09-11T23:22:26.989Z,13.88
2022-09-11T23:27:28.858Z,13.77
2022-09-11T23:32:30.973Z,13.76
2022-09-11T23:37:34.286Z,13.64
2022-09-11T23:42:35.967Z,13.60
2022-09-11T23:47:37.606Z,13.59
2022-09-11T23:52:39.575Z,13.54
2022-09-11T23:57:41.313Z,13.56
